createdAt,value
2019-05-09T00:00:53.410Z,45.23
2019-05-09T00:03:23.977Z,40.10
2019-05-09T00:05:54.204Z,42.00
2019-05-09T00:08:23.131Z,54.97
2019-05-09T00:10:53.447Z,50.93
2019-05-09T00:13:23.775Z,55.67
2019-05-09T00:15:54.202Z,48.27
2019-05-09T00:18:23.277Z,37.60
2019-05-09T00:20:56.335Z,60.50
2019-05-09T00:23:24.856Z,55.07
2019-05-09T00:25:53.841Z,74.30
2019-05-09T00:28:23.598Z,57.27
2019-05-09T00:30:56.509Z,57.70
2019-05-09T00:33:26.838Z,50.67
2019-05-09T00:35:55.099Z,51.90
2019-05-09T00:38:24.940Z,59.73
2019-05-09T00:40:58.609Z,50.47
2019-05-09T00:43:23.805Z,47.13
2019-05-09T00:46:04.198Z,60.27
2019-05-09T00:48:34.201Z,60.33
2019-05-09T00:51:03.512Z,71.20
2019-05-09T00:53:33.853Z,60.93
2019-05-09T00:56:04.015Z,60.93
2019-05-09T00:58:33.427Z,97.63
2019-05-09T01:01:04.299Z,67.53
2019-05-09T01:03:33.949Z,78.00
2019-05-09T01:06:04.087Z,88.23
2019-05-09T01:08:33.526Z,51.67
2019-05-09T01:11:11.783Z,59.47
2019-05-09T01:13:33.906Z,118.80
2019-05-09T01:16:04.377Z,52.10
2019-05-09T01:18:33.184Z,42.97
2019-05-09T01:21:03.916Z,46.77
2019-05-09T01:23:34.351Z,42.97
2019-05-09T01:26:04.008Z,41.20
2019-05-09T01:28:33.925Z,35.97
2019-05-09T01:31:03.989Z,38.63
2019-05-09T01:33:40.143Z,39.17
2019-05-09T01:36:08.616Z,36.87
2019-05-09T01:38:37.585Z,36.90
2019-05-09T01:41:06.463Z,38.10
2019-05-09T01:43:35.381Z,42.90
2019-05-09T01:46:04.257Z,39.17
2019-05-09T01:48:34.099Z,43.17
2019-05-09T01:51:03.251Z,37.83
2019-05-09T01:53:33.555Z,39.67
2019-05-09T01:56:03.699Z,37.37
2019-05-09T01:58:34.219Z,45.70
2019-05-09T02:01:04.157Z,52.77
2019-05-09T02:03:33.717Z,42.60
2019-05-09T02:06:03.454Z,40.87
2019-05-09T02:08:34.175Z,47.53
2019-05-09T02:11:03.780Z,33.70
2019-05-09T02:13:33.823Z,31.47
2019-05-09T02:16:09.437Z,41.33
2019-05-09T02:18:44.025Z,37.10
2019-05-09T02:21:14.416Z,37.23
2019-05-09T02:23:43.211Z,39.07
2019-05-09T02:26:13.592Z,40.13
2019-05-09T02:28:43.245Z,43.67
2019-05-09T02:31:15.765Z,40.10
2019-05-09T02:33:45.142Z,38.87
2019-05-09T02:36:11.708Z,53.33
2019-05-09T02:38:39.921Z,51.33
2019-05-09T02:41:08.968Z,39.87
2019-05-09T02:43:38.889Z,45.73
2019-05-09T02:46:11.891Z,41.40
2019-05-09T02:48:40.390Z,38.27
2019-05-09T02:51:09.407Z,37.13
2019-05-09T02:53:39.570Z,38.13
2019-05-09T02:56:09.167Z,33.50
2019-05-09T02:58:58.701Z,34.37
2019-05-09T03:01:29.356Z,28.77
2019-05-09T03:03:59.031Z,30.07
2019-05-09T03:06:28.365Z,28.97
2019-05-09T03:08:59.347Z,28.97
2019-05-09T03:11:28.959Z,28.23
2019-05-09T03:13:58.603Z,29.87
2019-05-09T03:16:29.335Z,45.10
2019-05-09T03:18:58.456Z,32.47
2019-05-09T03:21:45.294Z,48.07
2019-05-09T03:24:13.558Z,40.57
2019-05-09T03:26:43.612Z,36.23
2019-05-09T03:29:22.633Z,26.93
2019-05-09T03:31:51.500Z,31.87
2019-05-09T03:34:20.103Z,31.73
2019-05-09T03:36:48.480Z,31.20
2019-05-09T03:39:18.524Z,28.50
2019-05-09T03:41:48.709Z,28.43
2019-05-09T03:44:17.995Z,32.83
2019-05-09T03:46:58.127Z,27.47
2019-05-09T03:49:28.405Z,26.93
2019-05-09T03:51:58.497Z,23.47
2019-05-09T03:54:28.332Z,27.27
2019-05-09T03:57:01.172Z,23.37
2019-05-09T03:59:29.579Z,23.17
2019-05-09T04:01:59.069Z,24.93
2019-05-09T04:04:28.785Z,22.63
2019-05-09T04:06:58.046Z,22.10
2019-05-09T04:09:27.376Z,20.47
2019-05-09T04:11:58.413Z,23.60
2019-05-09T04:14:30.471Z,25.87
2019-05-09T04:16:59.007Z,28.00
2019-05-09T04:19:27.683Z,29.13
2019-05-09T04:21:57.546Z,35.10
2019-05-09T04:24:28.002Z,32.50
2019-05-09T04:27:04.075Z,33.93
2019-05-09T04:29:32.409Z,36.47
2019-05-09T04:32:00.676Z,37.00
2019-05-09T04:34:29.237Z,40.10
2019-05-09T04:36:57.756Z,47.53
2019-05-09T04:39:28.234Z,44.77
2019-05-09T04:42:03.733Z,48.10
2019-05-09T04:44:31.604Z,46.93
2019-05-09T04:47:03.415Z,45.70
2019-05-09T04:49:35.143Z,47.20
2019-05-09T04:52:00.146Z,50.23
2019-05-09T04:54:28.610Z,45.07
2019-05-09T04:56:57.526Z,38.63
2019-05-09T04:59:28.126Z,44.30
2019-05-09T05:02:09.648Z,42.87
2019-05-09T05:04:39.103Z,45.17
2019-05-09T05:07:07.704Z,42.50
2019-05-09T05:09:37.931Z,46.40
2019-05-09T05:12:08.467Z,49.60
2019-05-09T05:14:38.520Z,49.13
2019-05-09T05:17:11.185Z,49.20
2019-05-09T05:19:38.273Z,47.73
2019-05-09T05:22:20.378Z,51.80
2019-05-09T05:24:50.634Z,57.93
2019-05-09T05:27:19.138Z,63.00
2019-05-09T05:29:47.695Z,59.07
2019-05-09T05:32:18.007Z,58.47
2019-05-09T05:34:50.496Z,63.73
2019-05-09T05:37:18.712Z,81.47
2019-05-09T05:39:47.753Z,79.10
2019-05-09T05:42:17.625Z,68.60
2019-05-09T05:44:47.594Z,68.77
2019-05-09T05:47:18.106Z,73.87
2019-05-09T05:49:48.817Z,52.53
2019-05-09T05:52:18.544Z,55.70
2019-05-09T05:54:47.704Z,53.07
2019-05-09T05:57:19.526Z,48.00
2019-05-09T05:59:48.293Z,52.30
2019-05-09T06:02:17.793Z,54.13
2019-05-09T06:04:48.560Z,54.73
2019-05-09T06:07:18.493Z,51.77
2019-05-09T06:09:48.155Z,42.20
2019-05-09T06:12:18.511Z,45.67
2019-05-09T06:14:48.104Z,45.80
2019-05-09T06:17:18.066Z,44.67
2019-05-09T06:19:48.181Z,51.77
2019-05-09T06:22:18.333Z,60.17
2019-05-09T06:24:47.880Z,47.77
2019-05-09T06:27:18.273Z,44.37
2019-05-09T06:29:47.730Z,43.30
2019-05-09T06:32:18.628Z,37.50
2019-05-09T06:34:47.729Z,38.63
2019-05-09T06:37:18.328Z,37.43
2019-05-09T06:39:48.640Z,44.93
2019-05-09T06:42:18.091Z,35.97
2019-05-09T06:45:00.700Z,37.33
2019-05-09T06:47:30.904Z,38.33
2019-05-09T06:50:00.756Z,37.20
2019-05-09T06:52:29.019Z,36.90
2019-05-09T06:54:58.215Z,32.63
2019-05-09T06:57:28.078Z,34.87
2019-05-09T06:59:57.914Z,37.43
2019-05-09T07:02:28.507Z,37.47
2019-05-09T07:04:58.933Z,39.50
2019-05-09T07:07:34.954Z,38.70
2019-05-09T07:10:07.594Z,36.23
2019-05-09T07:12:37.937Z,34.77
2019-05-09T07:15:08.564Z,38.77
2019-05-09T07:17:38.553Z,39.90
2019-05-09T07:20:10.053Z,34.10
2019-05-09T07:22:39.990Z,34.97
2019-05-09T07:25:18.432Z,37.63
2019-05-09T07:27:48.294Z,38.97
2019-05-09T07:30:22.709Z,42.60
2019-05-09T07:33:09.635Z,44.30
2019-05-09T07:35:38.334Z,42.57
2019-05-09T07:38:08.572Z,43.23
2019-05-09T07:40:38.524Z,44.40
2019-05-09T07:43:07.702Z,37.50
2019-05-09T07:45:38.433Z,37.90
2019-05-09T07:48:11.707Z,39.73
2019-05-09T07:50:40.024Z,42.13
2019-05-09T07:53:08.961Z,41.63
2019-05-09T07:55:38.067Z,34.13
2019-05-09T07:58:08.078Z,35.80
2019-05-09T08:00:38.489Z,30.67
2019-05-09T08:03:12.941Z,33.67
2019-05-09T08:05:39.844Z,35.47
2019-05-09T08:08:10.820Z,37.23
2019-05-09T08:10:39.067Z,40.10
2019-05-09T08:13:11.849Z,31.87
2019-05-09T08:15:42.462Z,29.50
2019-05-09T08:18:11.009Z,33.63
2019-05-09T08:20:40.753Z,33.23
2019-05-09T08:23:09.057Z,38.10
2019-05-09T08:25:38.270Z,37.00
2019-05-09T08:28:09.058Z,39.87
2019-05-09T08:30:40.078Z,34.57
2019-05-09T08:33:08.417Z,28.67
2019-05-09T08:35:38.292Z,27.17
2019-05-09T08:38:08.648Z,24.03
2019-05-09T08:40:38.219Z,29.67
2019-05-09T08:43:07.572Z,28.00
2019-05-09T08:45:38.061Z,37.40
2019-05-09T08:48:09.611Z,35.23
2019-05-09T08:50:49.589Z,37.73
2019-05-09T08:53:18.793Z,40.03
2019-05-09T08:55:47.943Z,48.00
2019-05-09T08:58:19.606Z,43.13
2019-05-09T09:00:48.432Z,30.87
2019-05-09T09:03:18.510Z,33.27
2019-05-09T09:05:48.595Z,41.80
2019-05-09T09:08:18.353Z,38.73
2019-05-09T09:10:48.850Z,39.30
2019-05-09T09:13:17.588Z,35.20
2019-05-09T09:16:05.141Z,40.80
2019-05-09T09:18:18.007Z,39.37
2019-05-09T09:20:48.573Z,42.37
2019-05-09T09:23:18.038Z,37.97
2019-05-09T09:25:48.773Z,39.40
2019-05-09T09:28:18.273Z,37.13
2019-05-09T09:30:48.453Z,42.23
2019-05-09T09:33:17.632Z,35.10
2019-05-09T09:35:48.699Z,31.47
2019-05-09T09:38:17.681Z,32.20
2019-05-09T09:40:47.881Z,31.70
2019-05-09T09:43:17.641Z,32.60
2019-05-09T09:45:48.091Z,35.43
2019-05-09T09:48:18.080Z,44.33
2019-05-09T09:50:51.289Z,38.53
2019-05-09T09:53:19.631Z,27.37
2019-05-09T09:55:47.817Z,23.63
2019-05-09T09:58:19.017Z,24.20
2019-05-09T10:01:05.193Z,31.43
2019-05-09T10:03:34.475Z,32.40
2019-05-09T10:06:03.644Z,43.47
2019-05-09T10:08:39.537Z,28.87
2019-05-09T10:11:08.152Z,20.97
2019-05-09T10:13:40.603Z,23.97
2019-05-09T10:16:28.512Z,22.57
2019-05-09T10:18:46.355Z,22.97
2019-05-09T10:21:19.337Z,25.43
2019-05-09T10:23:48.555Z,23.40
2019-05-09T10:26:17.818Z,28.23
2019-05-09T10:28:48.858Z,33.63
2019-05-09T10:31:17.127Z,24.73
2019-05-09T10:33:45.557Z,17.90
2019-05-09T10:36:15.491Z,29.57
2019-05-09T10:38:44.077Z,22.93
2019-05-09T10:41:12.447Z,25.83
2019-05-09T10:43:48.739Z,19.93
2019-05-09T10:46:21.833Z,18.03
2019-05-09T10:48:52.532Z,18.43
2019-05-09T10:51:20.748Z,21.33
2019-05-09T10:53:48.988Z,21.10
2019-05-09T10:56:18.696Z,18.27
2019-05-09T10:58:48.224Z,17.23
2019-05-09T11:01:18.521Z,18.77
2019-05-09T11:03:48.344Z,17.83
2019-05-09T11:06:18.385Z,15.00
2019-05-09T11:08:48.031Z,13.87
2019-05-09T11:11:18.365Z,15.50
2019-05-09T11:13:48.411Z,14.50
2019-05-09T11:16:18.326Z,15.07
2019-05-09T11:18:48.400Z,18.37
2019-05-09T11:21:19.145Z,14.83
2019-05-09T11:23:48.853Z,14.33
2019-05-09T11:26:18.262Z,15.40
2019-05-09T11:28:47.293Z,15.93
2019-05-09T11:31:17.998Z,16.20
2019-05-09T11:33:48.293Z,15.63
2019-05-09T11:36:20.640Z,15.43
2019-05-09T11:38:49.109Z,13.10
2019-05-09T11:41:18.982Z,28.10
2019-05-09T11:43:48.285Z,15.00
2019-05-09T11:46:18.031Z,13.40
2019-05-09T11:48:46.096Z,13.30
2019-05-09T11:51:14.771Z,13.90
2019-05-09T11:53:42.982Z,13.83
2019-05-09T11:56:11.426Z,12.57
2019-05-09T11:58:40.317Z,13.60
2019-05-09T12:01:08.911Z,24.83
2019-05-09T12:03:38.831Z,30.60
2019-05-09T12:06:08.126Z,21.27
2019-05-09T12:08:38.530Z,21.90
2019-05-09T12:11:08.404Z,20.77
2019-05-09T12:13:37.984Z,16.13
2019-05-09T12:16:06.838Z,21.40
2019-05-09T12:18:35.156Z,16.97
2019-05-09T12:21:04.329Z,13.33
2019-05-09T12:23:32.853Z,12.73
2019-05-09T12:26:01.388Z,12.63
2019-05-09T12:28:29.943Z,18.33
2019-05-09T12:30:58.935Z,25.23
2019-05-09T12:33:28.800Z,16.90
2019-05-09T12:35:59.216Z,69.97
2019-05-09T12:38:28.848Z,32.63
2019-05-09T12:41:00.557Z,33.00
2019-05-09T12:43:28.273Z,21.83
2019-05-09T12:45:57.832Z,16.67
2019-05-09T12:48:27.842Z,10.57
2019-05-09T12:50:58.653Z,15.50
2019-05-09T12:53:27.955Z,16.77
2019-05-09T12:56:02.575Z,14.57
2019-05-09T12:58:30.785Z,13.30
2019-05-09T13:00:59.181Z,13.67
2019-05-09T13:03:28.044Z,19.47
2019-05-09T13:05:57.528Z,18.67
2019-05-09T13:08:27.835Z,22.70
2019-05-09T13:10:58.147Z,15.27
2019-05-09T13:13:28.301Z,27.00
2019-05-09T13:16:14.793Z,18.27
2019-05-09T13:19:00.310Z,14.97
2019-05-09T13:21:32.233Z,14.90
2019-05-09T13:23:58.788Z,28.10
2019-05-09T13:26:28.778Z,28.70
2019-05-09T13:28:58.809Z,22.47
2019-05-09T13:31:29.381Z,50.47
2019-05-09T13:33:58.846Z,40.43
2019-05-09T13:36:28.387Z,34.13
2019-05-09T13:39:04.146Z,23.27
2019-05-09T13:41:27.175Z,16.93
2019-05-09T13:43:59.265Z,18.67
2019-05-09T13:46:28.274Z,14.93
2019-05-09T13:49:10.007Z,31.10
2019-05-09T13:51:26.452Z,52.53
2019-05-09T13:53:54.821Z,31.17
2019-05-09T13:56:23.296Z,43.37
2019-05-09T13:58:52.264Z,52.97
2019-05-09T14:01:20.896Z,60.23
2019-05-09T14:03:49.315Z,44.23
2019-05-09T14:06:17.755Z,44.40
2019-05-09T14:08:48.958Z,44.13
2019-05-09T14:11:19.103Z,41.87
2019-05-09T14:13:48.463Z,49.07
2019-05-09T14:16:21.823Z,49.13
2019-05-09T14:18:48.370Z,38.00
2019-05-09T14:21:18.783Z,39.47
2019-05-09T14:24:00.212Z,36.47
2019-05-09T14:26:18.096Z,35.03
2019-05-09T14:28:48.838Z,27.50
2019-05-09T14:31:18.650Z,32.37
2019-05-09T14:33:47.763Z,23.90
2019-05-09T14:36:16.847Z,16.53
2019-05-09T14:38:48.168Z,12.80
2019-05-09T14:41:15.148Z,26.27
2019-05-09T14:43:43.904Z,9.10
2019-05-09T14:46:12.729Z,8.27
2019-05-09T14:48:41.291Z,21.13
2019-05-09T14:51:11.653Z,30.60
2019-05-09T14:53:40.079Z,33.90
2019-05-09T14:56:08.870Z,30.60
2019-05-09T14:58:38.824Z,32.30
2019-05-09T15:01:09.290Z,40.53
2019-05-09T15:03:38.888Z,30.83
2019-05-09T15:06:07.657Z,31.03
2019-05-09T15:08:38.191Z,33.27
2019-05-09T15:11:09.852Z,34.23
2019-05-09T15:13:37.735Z,41.93
2019-05-09T15:16:05.997Z,44.47
2019-05-09T15:18:34.391Z,53.30
2019-05-09T15:21:03.071Z,50.03
2019-05-09T15:23:31.289Z,49.47
2019-05-09T15:26:07.706Z,39.73
2019-05-09T15:28:38.538Z,26.47
2019-05-09T15:31:08.828Z,27.37
2019-05-09T15:33:37.573Z,14.03
2019-05-09T15:36:09.124Z,19.70
2019-05-09T15:38:38.061Z,28.57
2019-05-09T15:41:12.082Z,41.23
2019-05-09T15:43:38.109Z,39.00
2019-05-09T15:46:18.649Z,47.60
2019-05-09T15:48:47.944Z,45.83
2019-05-09T15:51:18.042Z,41.50
2019-05-09T15:53:48.651Z,43.00
2019-05-09T15:56:18.727Z,38.97
2019-05-09T15:58:49.046Z,64.10
2019-05-09T16:01:18.579Z,61.57
2019-05-09T16:03:48.599Z,45.77
2019-05-09T16:06:19.075Z,43.23
2019-05-09T16:08:47.401Z,55.80
2019-05-09T16:11:17.934Z,66.97
2019-05-09T16:13:47.975Z,47.57
2019-05-09T16:16:17.628Z,46.23
2019-05-09T16:18:48.560Z,34.00
2019-05-09T16:21:17.510Z,21.77
2019-05-09T16:23:48.536Z,19.63
2019-05-09T16:26:18.094Z,69.93
2019-05-09T16:28:48.811Z,28.17
2019-05-09T16:31:17.185Z,26.17
2019-05-09T16:33:47.583Z,31.33
2019-05-09T16:36:17.393Z,31.63
2019-05-09T16:38:48.442Z,28.67
2019-05-09T16:41:15.393Z,11.10
2019-05-09T16:43:43.628Z,16.27
2019-05-09T16:46:12.070Z,18.13
2019-05-09T16:48:41.100Z,25.03
2019-05-09T16:51:10.578Z,30.77
2019-05-09T16:53:39.343Z,34.53
2019-05-09T16:56:08.216Z,22.33
2019-05-09T16:58:40.087Z,30.40
2019-05-09T17:01:08.541Z,29.67
2019-05-09T17:03:36.800Z,44.43
2019-05-09T17:06:07.484Z,51.80
2019-05-09T17:08:35.737Z,59.47
2019-05-09T17:11:08.651Z,43.90
2019-05-09T17:13:38.333Z,38.53
2019-05-09T17:16:07.524Z,67.20
2019-05-09T17:18:38.184Z,77.80
2019-05-09T17:21:15.959Z,76.20
2019-05-09T17:23:38.468Z,74.20
2019-05-09T17:26:08.317Z,78.40
2019-05-09T17:28:37.604Z,71.37
2019-05-09T17:31:08.667Z,50.77
2019-05-09T17:33:37.899Z,53.37
2019-05-09T17:36:06.624Z,35.97
2019-05-09T17:38:35.441Z,40.17
2019-05-09T17:41:03.913Z,49.53
2019-05-09T17:43:32.139Z,44.43
2019-05-09T17:46:00.514Z,65.33
2019-05-09T17:48:28.936Z,70.37
2019-05-09T17:50:58.026Z,80.43
2019-05-09T17:53:29.250Z,81.83
2019-05-09T17:55:58.584Z,61.80
2019-05-09T17:58:33.140Z,69.00
2019-05-09T18:00:57.777Z,55.83
2019-05-09T18:03:28.808Z,45.00
2019-05-09T18:05:57.720Z,63.17
2019-05-09T18:08:28.158Z,61.83
2019-05-09T18:10:58.318Z,54.53
2019-05-09T18:13:29.753Z,51.30
2019-05-09T18:15:57.491Z,52.13
2019-05-09T18:18:28.164Z,53.17
2019-05-09T18:20:57.840Z,48.50
2019-05-09T18:23:28.183Z,53.90
2019-05-09T18:25:58.321Z,53.03
2019-05-09T18:28:29.110Z,41.40
2019-05-09T18:30:58.681Z,22.80
2019-05-09T18:33:29.671Z,21.43
2019-05-09T18:35:58.226Z,19.40
2019-05-09T18:38:28.413Z,17.37
2019-05-09T18:40:58.094Z,45.13
2019-05-09T18:43:27.424Z,42.83
2019-05-09T18:45:57.705Z,48.53
2019-05-09T18:48:27.863Z,38.03
2019-05-09T18:50:56.430Z,26.53
2019-05-09T18:53:24.687Z,26.67
2019-05-09T18:55:53.752Z,35.57
2019-05-09T18:58:22.220Z,31.73
2019-05-09T19:00:51.107Z,18.70
2019-05-09T19:03:20.035Z,17.40
2019-05-09T19:05:48.499Z,23.10
2019-05-09T19:08:17.515Z,32.73
2019-05-09T19:10:45.856Z,43.83
2019-05-09T19:13:14.095Z,40.67
2019-05-09T19:15:58.991Z,34.90
2019-05-09T19:18:48.307Z,33.47
2019-05-09T19:21:18.204Z,28.03
2019-05-09T19:23:46.546Z,29.23
2019-05-09T19:26:33.673Z,27.83
2019-05-09T19:29:02.173Z,25.00
2019-05-09T19:31:30.526Z,28.33
2019-05-09T19:33:58.819Z,30.03
2019-05-09T19:36:28.137Z,29.97
2019-05-09T19:38:57.698Z,30.60
2019-05-09T19:41:26.570Z,29.77
2019-05-09T19:43:55.064Z,30.30
2019-05-09T19:46:23.536Z,29.33
2019-05-09T19:48:51.862Z,35.73
2019-05-09T19:51:20.930Z,35.33
2019-05-09T19:53:49.330Z,28.83
2019-05-09T19:56:18.188Z,27.27
2019-05-09T19:58:46.788Z,26.50
2019-05-09T20:01:16.062Z,35.07
2019-05-09T20:03:45.173Z,32.17
2019-05-09T20:06:16.533Z,53.10
2019-05-09T20:08:44.176Z,38.60
2019-05-09T20:11:18.162Z,38.17
2019-05-09T20:13:56.831Z,45.33
2019-05-09T20:16:33.102Z,35.93
2019-05-09T20:19:01.673Z,49.77
2019-05-09T20:21:30.636Z,40.97
2019-05-09T20:23:58.860Z,56.73
2019-05-09T20:26:27.327Z,59.83
2019-05-09T20:28:55.504Z,68.80
2019-05-09T20:31:24.320Z,34.87
2019-05-09T20:33:52.730Z,38.67
2019-05-09T20:36:21.243Z,39.37
2019-05-09T20:38:50.661Z,41.63
2019-05-09T20:41:19.039Z,57.47
2019-05-09T20:43:47.671Z,45.07
2019-05-09T20:46:16.572Z,52.03
2019-05-09T20:48:45.150Z,38.33
2019-05-09T20:51:13.710Z,26.73
2019-05-09T20:53:42.407Z,28.10
2019-05-09T20:56:10.799Z,28.37
2019-05-09T20:58:39.197Z,27.13
2019-05-09T21:01:07.860Z,24.40
2019-05-09T21:03:36.443Z,25.87
2019-05-09T21:06:05.220Z,35.60
2019-05-09T21:08:33.672Z,36.17
2019-05-09T21:11:02.162Z,44.97
2019-05-09T21:13:47.157Z,48.40
2019-05-09T21:16:01.004Z,53.33
2019-05-09T21:18:29.715Z,47.50
2019-05-09T21:20:58.803Z,47.13
2019-05-09T21:23:27.631Z,50.23
2019-05-09T21:25:56.565Z,49.50
2019-05-09T21:28:25.213Z,71.73
2019-05-09T21:30:53.706Z,66.53
2019-05-09T21:33:22.269Z,57.13
2019-05-09T21:35:51.383Z,37.00
2019-05-09T21:38:19.820Z,37.23
2019-05-09T21:40:48.872Z,27.33
2019-05-09T21:43:17.314Z,30.47
2019-05-09T21:45:45.992Z,34.93
2019-05-09T21:48:14.288Z,34.30
2019-05-09T21:50:42.853Z,49.33
2019-05-09T21:53:11.143Z,34.03
2019-05-09T21:55:39.660Z,35.73
2019-05-09T21:58:07.968Z,40.10
2019-05-09T22:00:37.084Z,56.60
2019-05-09T22:03:06.355Z,50.93
2019-05-09T22:05:35.504Z,54.53
2019-05-09T22:08:04.162Z,45.03
2019-05-09T22:10:33.089Z,34.93
2019-05-09T22:13:01.696Z,31.97
2019-05-09T22:15:30.378Z,34.93
2019-05-09T22:17:59.924Z,27.40
2019-05-09T22:20:28.135Z,26.17
2019-05-09T22:22:56.592Z,26.90
2019-05-09T22:25:26.032Z,36.07
2019-05-09T22:27:54.893Z,38.83
2019-05-09T22:30:23.460Z,41.37
2019-05-09T22:32:51.840Z,39.53
2019-05-09T22:35:20.048Z,33.60
2019-05-09T22:37:48.468Z,36.50
2019-05-09T22:40:16.976Z,38.43
2019-05-09T22:42:46.272Z,31.30
2019-05-09T22:45:14.703Z,28.87
2019-05-09T22:47:43.015Z,21.63
2019-05-09T22:50:11.461Z,23.80
2019-05-09T22:52:39.964Z,29.60
2019-05-09T22:55:08.472Z,37.47
2019-05-09T22:57:36.684Z,28.07
2019-05-09T23:00:05.089Z,27.80
2019-05-09T23:02:33.790Z,25.77
2019-05-09T23:05:02.784Z,30.17
2019-05-09T23:07:31.036Z,32.30
2019-05-09T23:09:59.337Z,39.43
2019-05-09T23:12:27.824Z,39.40
2019-05-09T23:14:56.451Z,35.87
2019-05-09T23:17:24.661Z,37.67
2019-05-09T23:19:53.064Z,37.27
2019-05-09T23:22:22.685Z,38.30
2019-05-09T23:24:51.257Z,37.60
2019-05-09T23:27:20.246Z,38.23
2019-05-09T23:29:48.541Z,32.37
2019-05-09T23:32:18.858Z,35.53
2019-05-09T23:34:47.712Z,30.93
2019-05-09T23:37:16.024Z,34.00
2019-05-09T23:39:46.314Z,36.60
2019-05-09T23:42:14.540Z,35.43
2019-05-09T23:44:43.647Z,35.27
2019-05-09T23:47:11.860Z,35.57
2019-05-09T23:49:40.379Z,33.00
2019-05-09T23:52:08.617Z,26.93
2019-05-09T23:54:54.962Z,25.13
2019-05-09T23:57:41.311Z,26.87
